KFYM/FYM METAR and TAF weather

Enter ICAO airport designator
Station Type Date Time Source
KFYM METAR 2020/05/30 04:15 UTC NOAA

KFYM 300415Z AUTO 01005KT 10SM CLR 20/18 A3008 RMK A01


Station Type Date Time Source
KFYM Decoded METAR 2020/05/30 04:15 UTC NOAA

Station name not available
May 30, 2020 - 12:15 AM EDT / 2020.05.30 0415 UTC
Wind: from the N (010 degrees) at 6 MPH (5 KT):0
Visibility: 10 mile(s):0
Sky conditions: clear
Temperature: 68 F (20 C)
Dew Point: 64 F (18 C)
Relative Humidity: 88%
Pressure (altimeter): 30.08 in. Hg (1018 hPa)
ob: KFYM 300415Z AUTO 01005KT 10SM CLR 20/18 A3008 RMK A01
cycle: 4

Station Type Date Time Source
KFYM TAF 2009/08/31 19:45 UTC NOAA

METAR KFYM 311945Z AUTO 01006KT 10SM CLR 26/11 A3009
RMK AO1 T02550111 $

Example: see airport list